sensor_id;sensor_type;location;lat;lon;timestamp;pressure;altitude;pressure_sealevel;temperature;humidity
46392;BME280;32098;49.448;7.904;2024-02-21T00:00:09;99106.13;;;7.95;83.65
46392;BME280;32098;49.448;7.904;2024-02-21T00:02:37;99108.59;;;7.97;84.00
46392;BME280;32098;49.448;7.904;2024-02-21T00:05:04;99100.94;;;8.02;83.38
46392;BME280;32098;49.448;7.904;2024-02-21T00:07:31;99093.34;;;7.99;83.72
46392;BME280;32098;49.448;7.904;2024-02-21T00:09:58;99053.25;;;7.79;82.87
46392;BME280;32098;49.448;7.904;2024-02-21T00:12:24;99081.78;;;7.92;83.73
46392;BME280;32098;49.448;7.904;2024-02-21T00:14:51;99087.09;;;7.92;83.46
46392;BME280;32098;49.448;7.904;2024-02-21T00:17:17;99077.81;;;7.96;83.88
46392;BME280;32098;49.448;7.904;2024-02-21T00:19:44;99077.16;;;7.94;82.78
46392;BME280;32098;49.448;7.904;2024-02-21T00:22:10;99055.75;;;7.95;83.38
46392;BME280;32098;49.448;7.904;2024-02-21T00:24:37;99049.97;;;7.92;83.04
46392;BME280;32098;49.448;7.904;2024-02-21T00:27:04;99053.94;;;7.96;82.73
46392;BME280;32098;49.448;7.904;2024-02-21T00:29:30;99053.94;;;7.96;82.78
46392;BME280;32098;49.448;7.904;2024-02-21T00:31:57;99039.66;;;7.97;82.67
46392;BME280;32098;49.448;7.904;2024-02-21T00:34:24;99043.63;;;8.01;83.00
46392;BME280;32098;49.448;7.904;2024-02-21T00:36:50;99040.41;;;7.91;82.61
46392;BME280;32098;49.448;7.904;2024-02-21T00:39:17;99042.84;;;7.92;83.07
46392;BME280;32098;49.448;7.904;2024-02-21T00:41:44;99040.50;;;7.97;82.78
46392;BME280;32098;49.448;7.904;2024-02-21T00:44:10;99037.91;;;7.89;82.80
46392;BME280;32098;49.448;7.904;2024-02-21T00:46:37;99045.97;;;7.81;83.34
46392;BME280;32098;49.448;7.904;2024-02-21T00:49:05;99037.81;;;7.83;83.97
46392;BME280;32098;49.448;7.904;2024-02-21T00:51:32;99032.22;;;7.78;83.91
46392;BME280;32098;49.448;7.904;2024-02-21T00:53:58;99030.06;;;7.81;83.53
46392;BME280;32098;49.448;7.904;2024-02-21T00:56:25;99032.31;;;7.84;83.18
46392;BME280;32098;49.448;7.904;2024-02-21T00:58:51;99033.34;;;7.83;82.88
46392;BME280;32098;49.448;7.904;2024-02-21T01:01:22;99025.09;;;7.78;83.50
46392;BME280;32098;49.448;7.904;2024-02-21T01:03:49;99029.22;;;7.81;83.34
46392;BME280;32098;49.448;7.904;2024-02-21T01:06:17;99027.22;;;7.83;83.41
46392;BME280;32098;49.448;7.904;2024-02-21T01:08:44;99017.53;;;7.90;83.33
46392;BME280;32098;49.448;7.904;2024-02-21T01:11:11;99012.59;;;7.87;83.09
46392;BME280;32098;49.448;7.904;2024-02-21T01:13:37;99017.53;;;7.90;83.13
46392;BME280;32098;49.448;7.904;2024-02-21T01:16:04;99020.53;;;7.87;82.73
46392;BME280;32098;49.448;7.904;2024-02-21T01:18:37;99010.13;;;7.85;82.57
46392;BME280;32098;49.448;7.904;2024-02-21T01:21:04;99019.44;;;7.81;83.18
46392;BME280;32098;49.448;7.904;2024-02-21T01:23:36;99026.94;;;7.92;82.87
46392;BME280;32098;49.448;7.904;2024-02-21T01:26:03;99006.84;;;7.83;82.37
46392;BME280;32098;49.448;7.904;2024-02-21T01:28:30;99012.22;;;7.90;82.46
46392;BME280;32098;49.448;7.904;2024-02-21T01:30:57;99021.56;;;7.86;82.72
46392;BME280;32098;49.448;7.904;2024-02-21T01:33:24;99014.59;;;7.85;82.87
46392;BME280;32098;49.448;7.904;2024-02-21T01:35:52;99009.66;;;7.82;82.39
46392;BME280;32098;49.448;7.904;2024-02-21T01:38:19;99005.91;;;7.76;82.95
46392;BME280;32098;49.448;7.904;2024-02-21T01:40:46;99003.06;;;7.78;83.06
46392;BME280;32098;49.448;7.904;2024-02-21T01:43:17;99001.06;;;7.80;82.88
46392;BME280;32098;49.448;7.904;2024-02-21T01:45:48;99004.00;;;7.85;82.70
46392;BME280;32098;49.448;7.904;2024-02-21T01:48:17;98999.88;;;7.82;82.99
46392;BME280;32098;49.448;7.904;2024-02-21T01:50:45;98947.13;;;7.58;82.59
46392;BME280;32098;49.448;7.904;2024-02-21T01:53:13;98975.84;;;7.84;82.73
46392;BME280;32098;49.448;7.904;2024-02-21T01:55:45;98986.88;;;7.73;82.81
46392;BME280;32098;49.448;7.904;2024-02-21T01:58:16;98993.00;;;7.73;82.78
46392;BME280;32098;49.448;7.904;2024-02-21T02:00:44;98978.22;;;7.79;82.62
46392;BME280;32098;49.448;7.904;2024-02-21T02:03:12;98934.06;;;7.57;82.17
46392;BME280;32098;49.448;7.904;2024-02-21T02:05:49;98974.56;;;7.80;82.69
46392;BME280;32098;49.448;7.904;2024-02-21T02:08:18;98967.63;;;7.79;81.81
46392;BME280;32098;49.448;7.904;2024-02-21T02:10:45;98953.91;;;7.75;82.13
46392;BME280;32098;49.448;7.904;2024-02-21T02:13:12;98977.84;;;7.82;82.11
46392;BME280;32098;49.448;7.904;2024-02-21T02:15:40;98967.06;;;7.83;82.11
46392;BME280;32098;49.448;7.904;2024-02-21T02:18:08;98928.78;;;7.71;82.00
46392;BME280;32098;49.448;7.904;2024-02-21T02:20:35;98953.97;;;7.82;81.73
46392;BME280;32098;49.448;7.904;2024-02-21T02:23:19;98945.22;;;7.81;82.08
46392;BME280;32098;49.448;7.904;2024-02-21T02:25:46;98938.91;;;7.82;82.02
46392;BME280;32098;49.448;7.904;2024-02-21T02:28:15;98922.19;;;7.82;81.89
46392;BME280;32098;49.448;7.904;2024-02-21T02:30:42;98922.84;;;7.84;81.61
46392;BME280;32098;49.448;7.904;2024-02-21T02:33:09;98918.91;;;7.80;81.42
46392;BME280;32098;49.448;7.904;2024-02-21T02:35:36;98913.31;;;7.75;81.13
46392;BME280;32098;49.448;7.904;2024-02-21T02:38:03;98919.16;;;7.70;81.70
46392;BME280;32098;49.448;7.904;2024-02-21T02:40:31;98890.56;;;7.51;81.43
46392;BME280;32098;49.448;7.904;2024-02-21T02:42:57;98906.47;;;7.66;82.01
46392;BME280;32098;49.448;7.904;2024-02-21T02:45:24;98907.81;;;7.62;81.87
46392;BME280;32098;49.448;7.904;2024-02-21T02:47:53;98908.94;;;7.67;82.22
46392;BME280;32098;49.448;7.904;2024-02-21T02:50:24;98895.59;;;7.61;82.12
46392;BME280;32098;49.448;7.904;2024-02-21T02:52:52;98893.56;;;7.63;81.94
46392;BME280;32098;49.448;7.904;2024-02-21T02:55:19;98888.09;;;7.64;82.24
46392;BME280;32098;49.448;7.904;2024-02-21T02:57:46;98891.19;;;7.68;80.75
46392;BME280;32098;49.448;7.904;2024-02-21T03:00:13;98847.50;;;7.34;82.05
46392;BME280;32098;49.448;7.904;2024-02-21T03:02:43;98884.91;;;7.69;81.84
46392;BME280;32098;49.448;7.904;2024-02-21T03:05:17;98878.03;;;7.60;81.75
46392;BME280;32098;49.448;7.904;2024-02-21T03:07:44;98876.03;;;7.62;81.75
46392;BME280;32098;49.448;7.904;2024-02-21T03:10:11;98875.66;;;7.65;81.98
46392;BME280;32098;49.448;7.904;2024-02-21T03:12:38;98877.13;;;7.53;82.24
46392;BME280;32098;49.448;7.904;2024-02-21T03:15:05;98882.53;;;7.59;82.72
46392;BME280;32098;49.448;7.904;2024-02-21T03:17:32;98880.03;;;7.58;82.53
46392;BME280;32098;49.448;7.904;2024-02-21T03:20:03;98878.03;;;7.60;82.87
46392;BME280;32098;49.448;7.904;2024-02-21T03:22:36;98870.63;;;7.55;82.80
46392;BME280;32098;49.448;7.904;2024-02-21T03:25:04;98855.09;;;7.52;82.48
46392;BME280;32098;49.448;7.904;2024-02-21T03:27:31;98865.81;;;7.59;82.63
46392;BME280;32098;49.448;7.904;2024-02-21T03:29:57;98842.03;;;7.51;82.57
46392;BME280;32098;49.448;7.904;2024-02-21T03:32:24;98856.03;;;7.59;82.73
46392;BME280;32098;49.448;7.904;2024-02-21T03:34:51;98849.16;;;7.65;82.74
46392;BME280;32098;49.448;7.904;2024-02-21T03:37:17;98845.25;;;7.61;82.00
46392;BME280;32098;49.448;7.904;2024-02-21T03:39:45;98850.63;;;7.53;82.76
46392;BME280;32098;49.448;7.904;2024-02-21T03:42:11;98847.97;;;7.53;82.83
46392;BME280;32098;49.448;7.904;2024-02-21T03:44:38;98844.97;;;7.56;82.38
46392;BME280;32098;49.448;7.904;2024-02-21T03:47:05;98855.22;;;7.59;83.03
46392;BME280;32098;49.448;7.904;2024-02-21T03:49:32;98842.03;;;7.51;82.48
46392;BME280;32098;49.448;7.904;2024-02-21T03:51:58;98832.81;;;7.47;81.99
46392;BME280;32098;49.448;7.904;2024-02-21T03:54:25;98870.00;;;7.68;81.13
46392;BME280;32098;49.448;7.904;2024-02-21T03:56:51;98867.16;;;7.69;81.58
46392;BME280;32098;49.448;7.904;2024-02-21T03:59:18;98864.97;;;7.73;81.53
46392;BME280;32098;49.448;7.904;2024-02-21T04:01:45;98859.94;;;7.78;81.31
46392;BME280;32098;49.448;7.904;2024-02-21T04:04:11;98864.06;;;7.80;81.48
46392;BME280;32098;49.448;7.904;2024-02-21T04:06:51;98852.63;;;7.80;80.98
46392;BME280;32098;49.448;7.904;2024-02-21T04:09:18;98844.06;;;7.78;81.41
46392;BME280;32098;49.448;7.904;2024-02-21T04:11:45;98844.53;;;7.81;81.25
46392;BME280;32098;49.448;7.904;2024-02-21T04:14:11;98791.63;;;7.59;80.83
46392;BME280;32098;49.448;7.904;2024-02-21T04:16:39;98833.91;;;7.81;80.39
46392;BME280;32098;49.448;7.904;2024-02-21T04:19:06;98818.94;;;7.74;80.01
46392;BME280;32098;49.448;7.904;2024-02-21T04:21:35;98819.03;;;7.66;79.71
46392;BME280;32098;49.448;7.904;2024-02-21T04:24:01;98827.25;;;7.71;80.53
46392;BME280;32098;49.448;7.904;2024-02-21T04:26:30;98809.25;;;7.66;80.53
46392;BME280;32098;49.448;7.904;2024-02-21T04:28:56;98817.63;;;7.70;80.13
46392;BME280;32098;49.448;7.904;2024-02-21T04:31:23;98827.88;;;7.73;80.08
46392;BME280;32098;49.448;7.904;2024-02-21T04:33:51;98799.84;;;7.64;80.45
46392;BME280;32098;49.448;7.904;2024-02-21T04:36:17;98815.19;;;7.68;79.80
46392;BME280;32098;49.448;7.904;2024-02-21T04:38:45;98803.50;;;7.63;79.68
46392;BME280;32098;49.448;7.904;2024-02-21T04:41:12;98793.72;;;7.63;79.85
46392;BME280;32098;49.448;7.904;2024-02-21T04:43:38;98793.53;;;7.65;79.69
46392;BME280;32098;49.448;7.904;2024-02-21T04:46:05;98781.56;;;7.69;79.55
46392;BME280;32098;49.448;7.904;2024-02-21T04:48:31;98780.91;;;7.67;78.85
46392;BME280;32098;49.448;7.904;2024-02-21T04:50:59;98767.16;;;7.57;79.47
46392;BME280;32098;49.448;7.904;2024-02-21T04:53:25;98787.66;;;7.69;79.49
46392;BME280;32098;49.448;7.904;2024-02-21T04:55:52;98782.19;;;7.71;79.69
46392;BME280;32098;49.448;7.904;2024-02-21T04:58:19;98783.19;;;7.70;79.74
46392;BME280;32098;49.448;7.904;2024-02-21T05:00:45;98778.25;;;7.67;78.72
46392;BME280;32098;49.448;7.904;2024-02-21T05:03:12;98777.88;;;7.70;79.45
46392;BME280;32098;49.448;7.904;2024-02-21T05:05:39;98779.28;;;7.66;79.34
46392;BME280;32098;49.448;7.904;2024-02-21T05:08:06;98771.31;;;7.66;79.30
46392;BME280;32098;49.448;7.904;2024-02-21T05:10:33;98773.63;;;7.69;79.74
46392;BME280;32098;49.448;7.904;2024-02-21T05:12:59;98773.34;;;7.64;79.66
46392;BME280;32098;49.448;7.904;2024-02-21T05:15:26;98774.88;;;7.73;79.66
46392;BME280;32098;49.448;7.904;2024-02-21T05:17:53;98771.41;;;7.72;79.23
46392;BME280;32098;49.448;7.904;2024-02-21T05:20:19;98766.84;;;7.66;79.46
46392;BME280;32098;49.448;7.904;2024-02-21T05:22:46;98765.00;;;7.67;79.36
46392;BME280;32098;49.448;7.904;2024-02-21T05:25:13;98753.63;;;7.52;79.25
46392;BME280;32098;49.448;7.904;2024-02-21T05:27:40;98741.19;;;7.37;80.07
46392;BME280;32098;49.448;7.904;2024-02-21T05:30:07;98748.59;;;7.42;79.80
46392;BME280;32098;49.448;7.904;2024-02-21T05:32:33;98752.34;;;7.48;79.86
46392;BME280;32098;49.448;7.904;2024-02-21T05:35:00;98744.41;;;7.48;79.08
46392;BME280;32098;49.448;7.904;2024-02-21T05:37:27;98751.44;;;7.41;79.16
46392;BME280;32098;49.448;7.904;2024-02-21T05:39:54;98750.59;;;7.40;79.28
46392;BME280;32098;49.448;7.904;2024-02-21T05:42:20;98748.50;;;7.35;79.85
46392;BME280;32098;49.448;7.904;2024-02-21T05:44:47;98750.81;;;7.38;79.35
46392;BME280;32098;49.448;7.904;2024-02-21T05:47:14;98747.78;;;7.42;79.09
46392;BME280;32098;49.448;7.904;2024-02-21T05:49:42;98750.88;;;7.45;79.53
46392;BME280;32098;49.448;7.904;2024-02-21T05:52:08;98751.97;;;7.51;78.94
46392;BME280;32098;49.448;7.904;2024-02-21T05:54:37;98753.16;;;7.98;92.56
46392;BME280;32098;49.448;7.904;2024-02-21T05:57:05;98742.28;;;8.29;94.63
46392;BME280;32098;49.448;7.904;2024-02-21T05:59:32;98749.06;;;8.59;90.60
46392;BME280;32098;49.448;7.904;2024-02-21T06:01:59;98739.03;;;8.83;88.71
46392;BME280;32098;49.448;7.904;2024-02-21T06:04:26;98747.50;;;9.14;87.33
46392;BME280;32098;49.448;7.904;2024-02-21T06:06:52;98747.56;;;9.27;82.82
46392;BME280;32098;49.448;7.904;2024-02-21T06:09:19;98747.59;;;9.34;80.65
46392;BME280;32098;49.448;7.904;2024-02-21T06:11:46;98737.97;;;9.05;72.80
46392;BME280;32098;49.448;7.904;2024-02-21T06:14:13;98743.94;;;8.79;72.87
46392;BME280;32098;49.448;7.904;2024-02-21T06:16:40;98748.56;;;8.49;73.95
46392;BME280;32098;49.448;7.904;2024-02-21T06:19:07;98746.69;;;8.22;74.74
46392;BME280;32098;49.448;7.904;2024-02-21T06:21:36;98739.16;;;8.04;75.27
46392;BME280;32098;49.448;7.904;2024-02-21T06:24:03;98737.44;;;7.97;76.01
46392;BME280;32098;49.448;7.904;2024-02-21T06:26:30;98743.50;;;7.91;75.82
46392;BME280;32098;49.448;7.904;2024-02-21T06:28:57;98734.47;;;7.85;76.94
46392;BME280;32098;49.448;7.904;2024-02-21T06:31:24;98730.72;;;7.80;76.61
46392;BME280;32098;49.448;7.904;2024-02-21T06:33:51;98727.91;;;7.67;77.29
46392;BME280;32098;49.448;7.904;2024-02-21T06:36:17;98731.13;;;7.62;76.89
46392;BME280;32098;49.448;7.904;2024-02-21T06:38:44;98730.41;;;7.54;77.79
46392;BME280;32098;49.448;7.904;2024-02-21T06:41:19;98728.41;;;7.56;77.47
46392;BME280;32098;49.448;7.904;2024-02-21T06:43:46;98730.22;;;7.55;77.71
46392;BME280;32098;49.448;7.904;2024-02-21T06:46:27;98728.03;;;7.59;77.87
46392;BME280;32098;49.448;7.904;2024-02-21T06:48:56;98727.56;;;7.55;77.43
46392;BME280;32098;49.448;7.904;2024-02-21T06:51:27;98729.13;;;7.50;77.48
46392;BME280;32098;49.448;7.904;2024-02-21T06:53:54;98704.75;;;7.39;78.02
46392;BME280;32098;49.448;7.904;2024-02-21T06:56:23;98683.75;;;7.23;77.81
46392;BME280;32098;49.448;7.904;2024-02-21T06:58:53;98723.84;;;7.50;77.86
46392;BME280;32098;49.448;7.904;2024-02-21T07:01:20;98725.75;;;7.56;77.90
46392;BME280;32098;49.448;7.904;2024-02-21T07:03:47;98718.00;;;7.54;77.73
46392;BME280;32098;49.448;7.904;2024-02-21T07:06:13;98724.75;;;7.57;77.78
46392;BME280;32098;49.448;7.904;2024-02-21T07:08:40;98719.00;;;7.53;77.40
46392;BME280;32098;49.448;7.904;2024-02-21T07:11:07;98712.25;;;7.51;78.38
46392;BME280;32098;49.448;7.904;2024-02-21T07:13:33;98716.16;;;7.55;78.35
46392;BME280;32098;49.448;7.904;2024-02-21T07:16:00;98711.50;;;7.57;77.87
46392;BME280;32098;49.448;7.904;2024-02-21T07:18:27;98718.81;;;7.55;78.00
46392;BME280;32098;49.448;7.904;2024-02-21T07:20:53;98724.38;;;7.60;77.95
46392;BME280;32098;49.448;7.904;2024-02-21T07:23:20;98719.53;;;7.63;77.38
46392;BME280;32098;49.448;7.904;2024-02-21T07:25:47;98719.16;;;7.66;78.10
46392;BME280;32098;49.448;7.904;2024-02-21T07:28:13;98717.88;;;7.62;77.38
46392;BME280;32098;49.448;7.904;2024-02-21T07:30:40;98715.78;;;7.58;77.63
46392;BME280;32098;49.448;7.904;2024-02-21T07:33:07;98723.00;;;7.64;77.46
46392;BME280;32098;49.448;7.904;2024-02-21T07:35:34;98719.53;;;7.63;78.47
46392;BME280;32098;49.448;7.904;2024-02-21T07:38:01;98714.41;;;7.62;77.97
46392;BME280;32098;49.448;7.904;2024-02-21T07:40:27;98715.06;;;7.64;77.91
46392;BME280;32098;49.448;7.904;2024-02-21T07:42:54;98713.88;;;7.66;78.66
46392;BME280;32098;49.448;7.904;2024-02-21T07:45:21;98706.97;;;7.72;77.96
46392;BME280;32098;49.448;7.904;2024-02-21T07:47:50;98699.47;;;7.75;78.17
46392;BME280;32098;49.448;7.904;2024-02-21T07:50:17;98691.91;;;7.72;77.71
46392;BME280;32098;49.448;7.904;2024-02-21T07:52:44;98685.41;;;7.75;77.82
46392;BME280;32098;49.448;7.904;2024-02-21T07:55:10;98696.09;;;7.81;77.90
46392;BME280;32098;49.448;7.904;2024-02-21T07:57:37;98686.84;;;7.77;77.25
46392;BME280;32098;49.448;7.904;2024-02-21T08:00:04;98693.63;;;7.80;77.36
46392;BME280;32098;49.448;7.904;2024-02-21T08:02:37;98680.09;;;7.75;77.02
46392;BME280;32098;49.448;7.904;2024-02-21T08:05:04;98677.28;;;7.76;77.65
46392;BME280;32098;49.448;7.904;2024-02-21T08:07:31;98671.59;;;7.79;76.55
46392;BME280;32098;49.448;7.904;2024-02-21T08:09:58;98674.44;;;7.78;77.20
46392;BME280;32098;49.448;7.904;2024-02-21T08:12:24;98677.53;;;7.81;76.99
46392;BME280;32098;49.448;7.904;2024-02-21T08:14:51;98677.91;;;7.78;76.96
46392;BME280;32098;49.448;7.904;2024-02-21T08:17:18;98671.06;;;7.84;77.23
46392;BME280;32098;49.448;7.904;2024-02-21T08:19:44;98670.47;;;7.88;76.91
46392;BME280;32098;49.448;7.904;2024-02-21T08:22:11;98668.91;;;7.94;77.55
46392;BME280;32098;49.448;7.904;2024-02-21T08:24:38;98670.53;;;7.95;76.28
46392;BME280;32098;49.448;7.904;2024-02-21T08:27:04;98660.13;;;7.93;76.42
46392;BME280;32098;49.448;7.904;2024-02-21T08:29:31;98659.81;;;8.03;76.77
46392;BME280;32098;49.448;7.904;2024-02-21T08:31:58;98650.66;;;8.06;76.36
46392;BME280;32098;49.448;7.904;2024-02-21T08:34:25;98656.41;;;8.09;76.01
46392;BME280;32098;49.448;7.904;2024-02-21T08:36:52;98650.19;;;8.02;76.52
46392;BME280;32098;49.448;7.904;2024-02-21T08:39:18;98646.81;;;8.08;75.37
46392;BME280;32098;49.448;7.904;2024-02-21T08:41:45;98654.13;;;8.06;75.71
46392;BME280;32098;49.448;7.904;2024-02-21T08:44:23;98643.41;;;8.14;75.95
46392;BME280;32098;49.448;7.904;2024-02-21T08:46:53;98650.16;;;8.17;76.13
46392;BME280;32098;49.448;7.904;2024-02-21T08:49:20;98649.81;;;8.26;76.11
46392;BME280;32098;49.448;7.904;2024-02-21T08:51:47;98644.31;;;8.28;75.87
46392;BME280;32098;49.448;7.904;2024-02-21T08:54:14;98643.00;;;8.17;74.84
46392;BME280;32098;49.448;7.904;2024-02-21T08:56:40;98630.78;;;8.16;75.35
46392;BME280;32098;49.448;7.904;2024-02-21T08:59:07;98616.88;;;8.14;75.67
46392;BME280;32098;49.448;7.904;2024-02-21T09:01:34;98627.56;;;8.27;74.81
46392;BME280;32098;49.448;7.904;2024-02-21T09:04:02;98616.47;;;8.17;75.25
46392;BME280;32098;49.448;7.904;2024-02-21T09:06:29;98616.16;;;8.27;75.32
46392;BME280;32098;49.448;7.904;2024-02-21T09:08:57;98611.50;;;8.29;75.26
46392;BME280;32098;49.448;7.904;2024-02-21T09:11:24;98610.28;;;8.31;75.27
46392;BME280;32098;49.448;7.904;2024-02-21T09:13:51;98611.25;;;8.51;74.44
46392;BME280;32098;49.448;7.904;2024-02-21T09:16:18;98602.50;;;8.57;74.13
46392;BME280;32098;49.448;7.904;2024-02-21T09:18:45;98604.75;;;8.60;73.87
46392;BME280;32098;49.448;7.904;2024-02-21T09:21:13;98616.63;;;8.64;73.62
46392;BME280;32098;49.448;7.904;2024-02-21T09:23:39;98600.19;;;8.82;73.19
46392;BME280;32098;49.448;7.904;2024-02-21T09:26:06;98607.81;;;8.92;73.05
46392;BME280;32098;49.448;7.904;2024-02-21T09:28:33;98599.78;;;8.85;71.58
46392;BME280;32098;49.448;7.904;2024-02-21T09:31:01;98584.69;;;8.86;71.83
46392;BME280;32098;49.448;7.904;2024-02-21T09:33:28;98592.53;;;9.00;71.93
46392;BME280;32098;49.448;7.904;2024-02-21T09:35:58;98593.78;;;9.11;71.60
46392;BME280;32098;49.448;7.904;2024-02-21T09:38:26;98587.75;;;9.23;71.17
46392;BME280;32098;49.448;7.904;2024-02-21T09:41:16;98583.91;;;9.39;70.63
46392;BME280;32098;49.448;7.904;2024-02-21T09:43:51;98580.63;;;9.37;69.99
46392;BME280;32098;49.448;7.904;2024-02-21T09:46:24;98572.28;;;9.47;70.18
46392;BME280;32098;49.448;7.904;2024-02-21T09:49:30;98562.09;;;9.57;69.57
46392;BME280;32098;49.448;7.904;2024-02-21T09:52:02;98557.16;;;9.60;69.41
46392;BME280;32098;49.448;7.904;2024-02-21T09:54:30;98549.41;;;9.65;68.69
46392;BME280;32098;49.448;7.904;2024-02-21T09:57:00;98545.31;;;9.56;68.22
46392;BME280;32098;49.448;7.904;2024-02-21T09:59:28;98538.38;;;9.68;68.01
46392;BME280;32098;49.448;7.904;2024-02-21T10:01:56;98526.50;;;9.77;68.04
46392;BME280;32098;49.448;7.904;2024-02-21T10:04:23;98539.41;;;9.80;67.35
46392;BME280;32098;49.448;7.904;2024-02-21T10:06:51;98544.50;;;9.75;67.16
46392;BME280;32098;49.448;7.904;2024-02-21T10:09:36;98538.81;;;9.72;67.86
46392;BME280;32098;49.448;7.904;2024-02-21T10:12:10;98539.19;;;9.69;67.31
46392;BME280;32098;49.448;7.904;2024-02-21T10:14:38;98536.72;;;9.67;67.57
46392;BME280;32098;49.448;7.904;2024-02-21T10:17:05;98541.22;;;9.60;67.96
46392;BME280;32098;49.448;7.904;2024-02-21T10:19:36;98537.75;;;9.60;67.89
46392;BME280;32098;49.448;7.904;2024-02-21T10:22:05;98521.59;;;9.55;67.32
46392;BME280;32098;49.448;7.904;2024-02-21T10:24:31;98527.97;;;9.73;67.28
46392;BME280;32098;49.448;7.904;2024-02-21T10:27:02;98523.06;;;9.83;67.36
46392;BME280;32098;49.448;7.904;2024-02-21T10:29:31;98524.50;;;9.79;66.97
46392;BME280;32098;49.448;7.904;2024-02-21T10:32:11;98511.00;;;9.94;66.62
46392;BME280;32098;49.448;7.904;2024-02-21T10:34:41;98501.56;;;9.91;66.40
46392;BME280;32098;49.448;7.904;2024-02-21T10:37:10;98515.06;;;10.03;66.58
46392;BME280;32098;49.448;7.904;2024-02-21T10:39:38;98502.34;;;10.18;66.38
46392;BME280;32098;49.448;7.904;2024-02-21T10:42:05;98452.47;;;9.94;65.77
46392;BME280;32098;49.448;7.904;2024-02-21T10:44:37;98489.47;;;10.22;65.29
46392;BME280;32098;49.448;7.904;2024-02-21T10:47:10;98495.19;;;10.32;65.63
46392;BME280;32098;49.448;7.904;2024-02-21T10:49:39;98482.84;;;10.37;65.20
46392;BME280;32098;49.448;7.904;2024-02-21T10:52:29;98473.91;;;10.32;64.51
46392;BME280;32098;49.448;7.904;2024-02-21T10:55:03;98483.50;;;10.39;64.84
46392;BME280;32098;49.448;7.904;2024-02-21T10:57:34;98475.66;;;10.51;65.49
46392;BME280;32098;49.448;7.904;2024-02-21T11:00:01;98469.09;;;10.53;64.55
46392;BME280;32098;49.448;7.904;2024-02-21T11:02:31;98470.13;;;10.59;64.36
46392;BME280;32098;49.448;7.904;2024-02-21T11:04:58;98470.31;;;10.57;64.14
46392;BME280;32098;49.448;7.904;2024-02-21T11:07:25;98457.41;;;10.61;63.86
46392;BME280;32098;49.448;7.904;2024-02-21T11:09:53;98461.56;;;10.44;63.61
46392;BME280;32098;49.448;7.904;2024-02-21T11:12:23;98455.59;;;10.48;63.39
46392;BME280;32098;49.448;7.904;2024-02-21T11:14:52;98453.22;;;10.34;63.65
46392;BME280;32098;49.448;7.904;2024-02-21T11:17:19;98456.69;;;10.34;63.53
46392;BME280;32098;49.448;7.904;2024-02-21T11:19:47;98444.03;;;10.23;63.34
46392;BME280;32098;49.448;7.904;2024-02-21T11:22:19;98431.16;;;10.14;63.62
46392;BME280;32098;49.448;7.904;2024-02-21T11:24:46;98410.88;;;10.13;63.59
46392;BME280;32098;49.448;7.904;2024-02-21T11:27:15;98420.66;;;10.32;64.04
46392;BME280;32098;49.448;7.904;2024-02-21T11:29:45;98434.72;;;10.45;64.26
46392;BME280;32098;49.448;7.904;2024-02-21T11:32:17;98426.59;;;10.34;63.19
46392;BME280;32098;49.448;7.904;2024-02-21T11:34:58;98419.19;;;10.42;62.78
46392;BME280;32098;49.448;7.904;2024-02-21T11:37:30;98426.38;;;10.35;63.16
46392;BME280;32098;49.448;7.904;2024-02-21T11:39:59;98411.00;;;10.37;62.71
46392;BME280;32098;49.448;7.904;2024-02-21T11:42:27;98413.88;;;10.36;62.54
46392;BME280;32098;49.448;7.904;2024-02-21T11:44:54;98358.50;;;10.13;63.06
46392;BME280;32098;49.448;7.904;2024-02-21T11:47:24;98409.34;;;10.49;62.83
46392;BME280;32098;49.448;7.904;2024-02-21T11:49:51;98396.22;;;10.54;62.41
46392;BME280;32098;49.448;7.904;2024-02-21T11:52:22;98388.41;;;10.59;62.36
46392;BME280;32098;49.448;7.904;2024-02-21T11:54:52;98378.34;;;10.68;62.17
46392;BME280;32098;49.448;7.904;2024-02-21T11:57:18;98377.09;;;10.77;61.71
46392;BME280;32098;49.448;7.904;2024-02-21T11:59:45;98374.78;;;10.87;61.85
46392;BME280;32098;49.448;7.904;2024-02-21T12:02:14;98374.78;;;10.81;61.31
46392;BME280;32098;49.448;7.904;2024-02-21T12:04:42;98364.97;;;10.81;61.50
46392;BME280;32098;49.448;7.904;2024-02-21T12:07:08;98359.28;;;10.71;60.90
46392;BME280;32098;49.448;7.904;2024-02-21T12:09:35;98348.69;;;10.58;61.52
46392;BME280;32098;49.448;7.904;2024-02-21T12:12:03;98357.88;;;10.62;61.42
46392;BME280;32098;49.448;7.904;2024-02-21T12:14:33;98347.22;;;10.69;61.33
46392;BME280;32098;49.448;7.904;2024-02-21T12:17:02;98348.63;;;10.71;60.98
46392;BME280;32098;49.448;7.904;2024-02-21T12:19:33;98340.06;;;10.69;61.33
46392;BME280;32098;49.448;7.904;2024-02-21T12:22:00;98324.53;;;10.53;61.63
46392;BME280;32098;49.448;7.904;2024-02-21T12:24:28;98324.38;;;10.48;61.46
46392;BME280;32098;49.448;7.904;2024-02-21T12:26:56;98309.19;;;10.17;62.11
46392;BME280;32098;49.448;7.904;2024-02-21T12:29:24;98306.69;;;10.22;61.31
46392;BME280;32098;49.448;7.904;2024-02-21T12:31:55;98303.38;;;10.33;61.64
46392;BME280;32098;49.448;7.904;2024-02-21T12:34:23;98289.84;;;10.35;61.42
46392;BME280;32098;49.448;7.904;2024-02-21T12:37:04;98288.34;;;10.14;61.26
46392;BME280;32098;49.448;7.904;2024-02-21T12:39:31;98279.31;;;10.22;61.63
46392;BME280;32098;49.448;7.904;2024-02-21T12:41:59;98276.72;;;10.40;61.75
46392;BME280;32098;49.448;7.904;2024-02-21T12:44:26;98266.41;;;10.50;61.43
46392;BME280;32098;49.448;7.904;2024-02-21T12:46:53;98261.16;;;10.43;60.95
46392;BME280;32098;49.448;7.904;2024-02-21T12:49:21;98242.69;;;10.48;61.37
46392;BME280;32098;49.448;7.904;2024-02-21T12:51:49;98237.31;;;10.55;61.08
46392;BME280;32098;49.448;7.904;2024-02-21T12:54:15;98239.47;;;10.71;61.08
46392;BME280;32098;49.448;7.904;2024-02-21T12:56:42;98240.22;;;10.78;60.85
46392;BME280;32098;49.448;7.904;2024-02-21T12:59:08;98227.84;;;10.90;61.13
46392;BME280;32098;49.448;7.904;2024-02-21T13:01:36;98229.72;;;10.90;60.44
46392;BME280;32098;49.448;7.904;2024-02-21T13:04:05;98206.13;;;10.69;59.05
46392;BME280;32098;49.448;7.904;2024-02-21T13:06:32;98214.31;;;10.67;58.84
46392;BME280;32098;49.448;7.904;2024-02-21T13:08:59;98205.44;;;10.48;58.89
46392;BME280;32098;49.448;7.904;2024-02-21T13:11:28;98204.09;;;10.64;59.22
46392;BME280;32098;49.448;7.904;2024-02-21T13:13:58;98196.44;;;10.74;59.58